Time;durP1;ratioP1;P1;durP2;ratioP2;P2;SDS_P1;SDS_P2;PMS_P1;PMS_P2;Temp;Humidity;BMP_temperature;BMP_pressure;BME280_temperature;BME280_humidity;BME280_pressure;Samples;Min_cycle;Max_cycle;Signal;HPM_P1;HPM_P2
2021/08/09 00:00:57;;;;;;;2.53;2.10;;;11.20;99.90;;;;;;4972286;28;20421;-57
2021/08/09 00:03:26;;;;;;;4.10;2.57;;;11.20;99.90;;;;;;4958298;28;20446;-57
2021/08/09 00:05:54;;;;;;;4.10;3.07;;;11.20;99.90;;;;;;4964740;28;20460;-57
2021/08/09 00:08:28;;;;;;;4.43;2.30;;;11.10;99.90;;;;;;4971767;28;20918;-58
2021/08/09 00:11:01;;;;;;;3.80;2.77;;;11.10;99.90;;;;;;4972806;28;20444;-57
2021/08/09 00:13:30;;;;;;;3.17;2.97;;;11.00;99.90;;;;;;4958928;28;20533;-57
2021/08/09 00:16:05;;;;;;;5.37;3.40;;;11.00;99.90;;;;;;4971816;28;20471;-59
2021/08/09 00:18:51;;;;;;;4.03;2.67;;;11.00;99.90;;;;;;4971813;28;20475;-59
2021/08/09 00:21:39;;;;;;;3.93;2.67;;;10.90;99.90;;;;;;4963889;28;20521;-58
2021/08/09 00:24:16;;;;;;;9.43;3.23;;;10.90;99.90;;;;;;4967620;28;20420;-57
2021/08/09 00:26:44;;;;;;;2.33;2.13;;;10.80;99.90;;;;;;4968802;28;20430;-58
2021/08/09 00:29:32;;;;;;;9.03;2.87;;;10.80;99.90;;;;;;4959485;28;20594;-57
2021/08/09 00:32:22;;;;;;;5.70;3.00;;;10.70;99.90;;;;;;4952666;28;20536;-56
2021/08/09 00:34:53;;;;;;;5.13;2.60;;;10.70;99.90;;;;;;4952727;28;20426;-56
2021/08/09 00:37:21;;;;;;;9.60;2.60;;;10.70;99.90;;;;;;4971142;28;20421;-57
2021/08/09 00:39:47;;;;;;;4.67;2.73;;;10.70;99.90;;;;;;4971565;28;20445;-58
2021/08/09 00:42:19;;;;;;;5.10;2.63;;;10.70;99.90;;;;;;4969476;28;20432;-57
2021/08/09 00:44:53;;;;;;;3.70;2.73;;;10.70;99.90;;;;;;4962670;28;20178;-57
2021/08/09 00:47:31;;;;;;;4.13;2.73;;;10.70;99.90;;;;;;4970068;28;20496;-57
2021/08/09 00:50:02;;;;;;;5.80;2.70;;;10.60;99.90;;;;;;4957070;28;20945;-58
2021/08/09 00:52:33;;;;;;;6.27;3.57;;;10.60;99.90;;;;;;4964693;28;20533;-57
2021/08/09 00:54:59;;;;;;;10.30;3.47;;;10.60;99.90;;;;;;4971569;28;20500;-58
2021/08/09 00:57:30;;;;;;;4.43;2.80;;;10.60;99.90;;;;;;4971547;28;20520;-58
2021/08/09 00:59:58;;;;;;;13.10;3.10;;;10.50;99.90;;;;;;4970421;28;20713;-58
2021/08/09 01:02:23;;;;;;;4.87;3.00;;;10.60;99.90;;;;;;4970734;28;20433;-55
2021/08/09 01:08:12;;;;;;;3.67;2.60;;;10.50;99.90;;;;;;4970066;28;20196;-60
2021/08/09 01:11:11;;;;;;;14.43;3.07;;;10.50;99.90;;;;;;4962037;28;20445;-57
2021/08/09 01:13:55;;;;;;;5.33;2.57;;;10.50;99.90;;;;;;4961739;28;20427;-58
2021/08/09 01:16:42;;;;;;;;;;;;;;;;;;;;;
2021/08/09 01:19:51;;;;;;;3.63;2.50;;;10.50;99.90;;;;;;4970806;28;20449;-57
2021/08/09 01:22:58;;;;;;;2.97;2.73;;;10.40;99.90;;;;;;4985056;28;20443;-59
2021/08/09 01:26:02;;;;;;;7.80;3.03;;;10.40;99.90;;;;;;4968882;28;20552;-57
2021/08/09 01:28:44;;;;;;;9.20;2.67;;;10.30;99.90;;;;;;4959229;28;20495;-57
2021/08/09 01:31:19;;;;;;;3.30;2.53;;;10.30;99.90;;;;;;4970118;28;20791;-57
2021/08/09 01:33:57;;;;;;;3.40;3.10;;;10.20;99.90;;;;;;4961665;28;20449;-57
2021/08/09 01:36:26;;;;;;;4.63;2.90;;;10.20;99.90;;;;;;4951837;28;20461;-56
2021/08/09 01:38:52;;;;;;;14.20;2.53;;;10.20;99.90;;;;;;4968377;28;20511;-57
2021/08/09 01:41:19;;;;;;;3.83;3.10;;;10.20;99.90;;;;;;4969485;28;20520;-58
2021/08/09 01:43:51;;;;;;;6.03;3.90;;;10.10;99.90;;;;;;4963995;28;20484;-58
2021/08/09 01:46:20;;;;;;;3.23;2.73;;;10.10;99.90;;;;;;4972397;28;20531;-59
2021/08/09 01:48:56;;;;;;;3.57;2.93;;;10.10;99.90;;;;;;4976787;28;20449;-57
2021/08/09 01:51:31;;;;;;;5.43;2.73;;;10.10;99.90;;;;;;4973337;28;20428;-57
2021/08/09 01:53:56;;;;;;;3.10;2.80;;;10.10;99.90;;;;;;4977810;28;20480;-57
2021/08/09 01:56:27;;;;;;;5.90;3.60;;;10.10;99.90;;;;;;4975818;28;20461;-56
2021/08/09 01:58:56;;;;;;;3.20;2.57;;;10.00;99.90;;;;;;4951812;29;20194;-58
2021/08/09 02:01:24;;;;;;;2.60;2.30;;;10.00;99.90;;;;;;4971996;28;20429;-57
2021/08/09 02:04:01;;;;;;;7.53;2.40;;;10.00;99.90;;;;;;4964104;28;21127;-56
2021/08/09 02:06:29;;;;;;;3.43;2.60;;;10.00;99.90;;;;;;4969183;28;20918;-57
2021/08/09 02:09:00;;;;;;;2.50;2.30;;;10.00;99.90;;;;;;4967783;28;20449;-57
2021/08/09 02:11:53;;;;;;;3.43;2.60;;;9.90;99.90;;;;;;4958540;28;20489;-57
2021/08/09 02:14:40;;;;;;;4.80;2.60;;;9.90;99.90;;;;;;4969541;28;20433;-57
2021/08/09 02:17:29;;;;;;;5.03;2.77;;;9.90;99.90;;;;;;4955858;28;20440;-58
2021/08/09 02:20:26;;;;;;;4.63;2.70;;;9.90;99.90;;;;;;4968589;28;20438;-57
2021/08/09 02:23:05;;;;;;;3.00;2.70;;;9.80;99.90;;;;;;4969569;28;20432;-58
2021/08/09 02:25:39;;;;;;;4.33;2.43;;;9.80;99.90;;;;;;4963005;28;20421;-56
2021/08/09 02:28:21;;;;;;;2.83;2.63;;;9.80;99.90;;;;;;4970212;28;20475;-57
2021/08/09 02:30:54;;;;;;;8.40;2.70;;;9.80;99.90;;;;;;4969459;28;20827;-57
2021/08/09 02:33:30;;;;;;;4.97;3.00;;;9.70;99.90;;;;;;4950119;29;20414;-57
2021/08/09 02:36:08;;;;;;;6.00;2.40;;;9.70;99.90;;;;;;4964956;28;20829;-56
2021/08/09 02:38:42;;;;;;;5.73;3.40;;;9.70;99.90;;;;;;4969487;28;20473;-58
2021/08/09 02:41:20;;;;;;;2.93;2.67;;;9.70;99.90;;;;;;4965595;28;20822;-57
2021/08/09 02:43:57;;;;;;;4.77;2.80;;;9.70;99.90;;;;;;4968224;28;20413;-57
2021/08/09 02:46:30;;;;;;;4.97;2.60;;;9.70;99.90;;;;;;4970153;28;20828;-58
2021/08/09 02:49:03;;;;;;;4.80;2.50;;;9.70;99.90;;;;;;4970132;28;20864;-57
2021/08/09 02:51:31;;;;;;;8.80;2.47;;;9.70;99.90;;;;;;4969450;28;20825;-57
2021/08/09 02:53:57;;;;;;;3.10;2.77;;;9.70;99.90;;;;;;4970637;28;20421;-56
2021/08/09 02:56:35;;;;;;;2.83;2.53;;;9.70;99.90;;;;;;4969332;28;20468;-55
2021/08/09 02:59:01;;;;;;;7.30;3.37;;;9.70;99.90;;;;;;4968091;28;20933;-58
2021/08/09 03:01:37;;;;;;;5.10;2.50;;;9.70;99.90;;;;;;4967630;28;20425;-57
2021/08/09 03:04:18;;;;;;;3.93;2.70;;;9.70;99.90;;;;;;4969955;28;20424;-57
2021/08/09 03:06:44;;;;;;;3.03;2.40;;;9.70;99.90;;;;;;4968519;28;20861;-58
2021/08/09 03:09:18;;;;;;;4.43;2.50;;;9.70;99.90;;;;;;4969956;28;20468;-58
2021/08/09 03:11:58;;;;;;;2.80;2.50;;;9.70;99.90;;;;;;4959907;28;20460;-57
2021/08/09 03:14:30;;;;;;;2.63;2.13;;;9.70;99.90;;;;;;4970321;28;20509;-57
2021/08/09 03:17:04;;;;;;;3.43;2.37;;;9.60;99.90;;;;;;4971346;28;20551;-57
2021/08/09 03:19:33;;;;;;;4.27;2.53;;;9.60;99.90;;;;;;4961419;28;20458;-58
2021/08/09 03:22:01;;;;;;;2.60;2.37;;;9.60;99.90;;;;;;4965798;28;20417;-57
2021/08/09 03:24:52;;;;;;;2.87;2.50;;;9.60;99.90;;;;;;4973660;28;20487;-57
2021/08/09 03:27:23;;;;;;;6.93;2.90;;;9.60;99.90;;;;;;4969346;28;20524;-56
2021/08/09 03:30:00;;;;;;;4.23;2.50;;;9.60;99.90;;;;;;4967444;28;20455;-57
2021/08/09 03:32:26;;;;;;;2.40;2.20;;;9.50;99.90;;;;;;4973092;28;20405;-57
2021/08/09 03:34:57;;;;;;;2.40;2.20;;;9.50;99.90;;;;;;4973016;28;21001;-57
2021/08/09 03:37:23;;;;;;;2.07;1.93;;;9.50;99.90;;;;;;4958540;28;20175;-58
2021/08/09 03:39:51;;;;;;;6.20;2.87;;;9.50;99.90;;;;;;4971427;28;20950;-56
2021/08/09 03:42:20;;;;;;;3.23;2.87;;;9.50;99.90;;;;;;4972613;28;20253;-57
2021/08/09 03:44:45;;;;;;;5.10;2.80;;;9.50;99.90;;;;;;4967299;28;20440;-58
2021/08/09 03:47:11;;;;;;;2.67;2.47;;;9.50;99.90;;;;;;4972413;28;20789;-58
2021/08/09 03:49:37;;;;;;;3.93;2.50;;;9.50;99.90;;;;;;4973177;28;20201;-55
2021/08/09 03:52:02;;;;;;;3.40;2.57;;;9.50;99.90;;;;;;4972944;28;20658;-57
2021/08/09 03:54:31;;;;;;;4.53;2.63;;;9.40;99.90;;;;;;4963812;28;20651;-57
2021/08/09 03:56:56;;;;;;;4.40;2.93;;;9.40;99.90;;;;;;4971683;28;20206;-59
2021/08/09 03:59:22;;;;;;;2.70;2.50;;;9.40;99.90;;;;;;4972468;28;20440;-57
2021/08/09 04:01:49;;;;;;;5.37;2.50;;;9.40;99.90;;;;;;4969488;28;20182;-57
2021/08/09 04:04:15;;;;;;;3.80;2.97;;;9.40;99.90;;;;;;4972270;28;20173;-57
2021/08/09 04:06:41;;;;;;;3.80;2.13;;;9.40;99.90;;;;;;4973091;28;20483;-57
2021/08/09 04:09:07;;;;;;;5.70;2.53;;;9.40;99.90;;;;;;4971020;28;20461;-57
2021/08/09 04:11:34;;;;;;;2.53;2.33;;;9.40;99.90;;;;;;4969089;28;20190;-57
2021/08/09 04:14:01;;;;;;;2.47;2.27;;;9.40;99.90;;;;;;4972555;28;20428;-57
2021/08/09 04:16:27;;;;;;;2.90;2.40;;;9.40;99.90;;;;;;4971478;28;20457;-57
2021/08/09 04:18:53;;;;;;;3.03;2.50;;;9.40;99.90;;;;;;4969849;28;20441;-58
2021/08/09 04:21:19;;;;;;;3.93;2.50;;;9.40;99.90;;;;;;4967947;28;20549;-59
2021/08/09 04:23:45;;;;;;;2.40;2.17;;;9.40;99.90;;;;;;4972123;28;20504;-57
2021/08/09 04:26:11;;;;;;;2.90;2.60;;;9.40;99.90;;;;;;4986234;28;20504;-57
2021/08/09 04:28:36;;;;;;;2.73;2.00;;;9.40;99.90;;;;;;4964496;28;20537;-58
2021/08/09 04:31:02;;;;;;;5.47;2.20;;;9.40;99.90;;;;;;4971520;28;21707;-57
2021/08/09 04:33:28;;;;;;;5.00;3.03;;;9.40;99.90;;;;;;4972380;28;20186;-57
2021/08/09 04:35:53;;;;;;;7.43;3.20;;;9.40;99.90;;;;;;4971775;28;20197;-57
2021/08/09 04:38:19;;;;;;;3.50;2.40;;;9.40;99.90;;;;;;4960595;28;20178;-57
2021/08/09 04:40:44;;;;;;;4.03;2.57;;;9.40;99.90;;;;;;4962406;28;20178;-56
2021/08/09 04:43:10;;;;;;;5.40;2.50;;;9.50;99.90;;;;;;4972351;28;20174;-57
2021/08/09 04:45:36;;;;;;;5.50;3.00;;;9.50;99.90;;;;;;4966741;28;20310;-57
2021/08/09 04:48:01;;;;;;;5.40;2.80;;;9.50;99.90;;;;;;4958902;28;20681;-63
2021/08/09 04:50:27;;;;;;;3.10;2.53;;;9.50;99.90;;;;;;4970598;28;20201;-57
2021/08/09 04:52:53;;;;;;;5.43;2.83;;;9.50;99.90;;;;;;4969265;28;20710;-57
2021/08/09 04:55:18;;;;;;;4.30;2.40;;;9.50;99.90;;;;;;4964185;28;20698;-57
2021/08/09 04:57:44;;;;;;;3.00;2.70;;;9.50;99.90;;;;;;4961313;28;20234;-59
2021/08/09 05:00:10;;;;;;;2.83;2.57;;;9.50;99.90;;;;;;4966012;28;20214;-57
2021/08/09 05:02:37;;;;;;;3.33;2.60;;;9.50;99.90;;;;;;4966242;28;20170;-60
2021/08/09 05:05:04;;;;;;;6.30;2.70;;;9.50;99.90;;;;;;4969164;28;20425;-56
2021/08/09 05:07:29;;;;;;;6.43;2.90;;;9.50;99.90;;;;;;4968123;28;20456;-57
2021/08/09 05:09:55;;;;;;;6.90;2.40;;;9.50;99.90;;;;;;4965766;28;21806;-56
2021/08/09 05:12:21;;;;;;;4.93;3.30;;;9.60;99.90;;;;;;4983207;28;20208;-57
2021/08/09 05:14:47;;;;;;;5.97;2.97;;;9.60;99.90;;;;;;4963506;28;20182;-57
2021/08/09 05:17:13;;;;;;;3.33;2.37;;;9.60;99.90;;;;;;4959580;28;20174;-58
2021/08/09 05:19:38;;;;;;;8.53;2.80;;;9.70;99.90;;;;;;4963441;28;20277;-56
2021/08/09 05:22:04;;;;;;;7.13;2.90;;;9.70;99.90;;;;;;4971015;28;20537;-56
2021/08/09 05:24:30;;;;;;;4.67;3.00;;;9.70;99.90;;;;;;4967328;28;20271;-57
2021/08/09 05:26:57;;;;;;;3.10;2.70;;;9.80;99.90;;;;;;4967886;28;20244;-58
2021/08/09 05:29:23;;;;;;;11.17;3.30;;;9.80;99.90;;;;;;4964920;28;20463;-56
2021/08/09 05:31:48;;;;;;;3.90;3.13;;;9.90;99.90;;;;;;4962151;28;20437;-56
2021/08/09 05:34:14;;;;;;;2.93;2.70;;;9.90;99.90;;;;;;4966588;28;20185;-56
2021/08/09 05:36:42;;;;;;;4.23;3.13;;;10.00;99.90;;;;;;4959798;28;20205;-54
2021/08/09 05:39:07;;;;;;;6.10;3.27;;;10.00;99.90;;;;;;4967291;28;20200;-59
2021/08/09 05:41:33;;;;;;;4.40;2.97;;;10.10;99.90;;;;;;4964283;28;20433;-57
2021/08/09 05:43:59;;;;;;;9.50;3.13;;;10.30;99.90;;;;;;4960896;28;20181;-58
2021/08/09 05:46:25;;;;;;;10.67;2.80;;;10.40;99.90;;;;;;4959842;28;20953;-59
2021/08/09 05:48:51;;;;;;;3.10;2.80;;;10.50;99.90;;;;;;4965561;28;20201;-55
2021/08/09 05:51:16;;;;;;;2.73;2.50;;;10.60;99.90;;;;;;4963440;28;20445;-57
2021/08/09 05:53:42;;;;;;;5.37;2.37;;;10.70;99.90;;;;;;4965235;28;20177;-58
2021/08/09 05:56:07;;;;;;;4.13;2.80;;;10.70;99.90;;;;;;4959959;28;20359;-56
2021/08/09 05:58:33;;;;;;;4.00;3.17;;;10.80;99.90;;;;;;4961404;28;20204;-61
2021/08/09 06:00:59;;;;;;;3.10;2.70;;;10.90;99.90;;;;;;4962951;28;20771;-57
2021/08/09 06:03:24;;;;;;;6.30;2.80;;;10.90;99.90;;;;;;4968367;28;20257;-57
2021/08/09 06:05:54;;;;;;;3.20;3.00;;;11.10;99.90;;;;;;4970043;28;20297;-55
2021/08/09 06:08:20;;;;;;;4.60;2.70;;;11.20;99.90;;;;;;4968985;28;20221;-54
2021/08/09 06:10:45;;;;;;;3.33;3.00;;;11.30;99.90;;;;;;4965118;28;20450;-54
2021/08/09 06:13:11;;;;;;;7.07;2.63;;;11.30;99.90;;;;;;4968309;28;20174;-57
2021/08/09 06:15:37;;;;;;;6.80;3.03;;;11.40;99.90;;;;;;4968159;28;20269;-54
2021/08/09 06:18:02;;;;;;;4.10;2.90;;;11.50;99.90;;;;;;4966509;28;20178;-54
2021/08/09 06:20:28;;;;;;;5.53;3.00;;;11.60;99.90;;;;;;4960436;28;20717;-55
2021/08/09 06:22:55;;;;;;;9.17;3.70;;;11.70;99.90;;;;;;4968678;28;20202;-56
2021/08/09 06:25:24;;;;;;;5.63;4.20;;;11.70;99.90;;;;;;4964269;28;20273;-58
2021/08/09 06:27:50;;;;;;;3.53;2.60;;;11.80;99.90;;;;;;4963311;28;20442;-58
2021/08/09 06:30:16;;;;;;;3.23;2.83;;;11.90;99.90;;;;;;4966807;28;20457;-58
2021/08/09 06:32:43;;;;;;;5.20;2.97;;;12.10;99.90;;;;;;4961666;28;20488;-59
2021/08/09 06:35:10;;;;;;;4.17;3.20;;;12.10;99.90;;;;;;4965653;28;20514;-58
2021/08/09 06:37:35;;;;;;;3.57;3.20;;;12.20;99.90;;;;;;4963083;28;20906;-56
2021/08/09 06:40:03;;;;;;;4.90;2.70;;;12.30;99.90;;;;;;4962047;28;20577;-56
2021/08/09 06:42:29;;;;;;;3.17;2.63;;;12.40;99.90;;;;;;4967994;28;20181;-60
2021/08/09 06:44:54;;;;;;;5.13;2.67;;;12.50;99.90;;;;;;4961745;28;20429;-57
2021/08/09 06:47:20;;;;;;;6.57;3.47;;;12.50;99.90;;;;;;4968457;28;20262;-57
2021/08/09 06:49:46;;;;;;;2.83;2.30;;;12.60;99.90;;;;;;4969555;28;20221;-56
2021/08/09 06:52:11;;;;;;;6.70;2.50;;;12.70;99.90;;;;;;4968797;28;20178;-56
2021/08/09 06:54:37;;;;;;;4.80;2.10;;;12.80;99.90;;;;;;4974210;28;20186;-57
2021/08/09 06:57:03;;;;;;;2.60;2.30;;;12.90;99.90;;;;;;4969614;28;20226;-57
2021/08/09 06:59:28;;;;;;;7.13;3.03;;;13.00;99.90;;;;;;4962911;28;20201;-56
2021/08/09 07:01:54;;;;;;;5.40;2.83;;;13.10;99.90;;;;;;4968190;28;20256;-57
2021/08/09 07:04:20;;;;;;;3.73;2.47;;;13.10;99.90;;;;;;4972914;28;20225;-56
2021/08/09 07:06:49;;;;;;;6.10;2.83;;;13.20;99.90;;;;;;4968774;28;20185;-55
2021/08/09 07:09:15;;;;;;;3.93;2.13;;;13.30;99.90;;;;;;4969312;28;20425;-57
2021/08/09 07:11:41;;;;;;;4.97;2.70;;;13.30;99.90;;;;;;4942409;28;21016;-57
2021/08/09 07:14:07;;;;;;;4.03;2.40;;;13.40;99.90;;;;;;4951322;28;20181;-55
2021/08/09 07:16:32;;;;;;;4.87;1.97;;;13.60;99.90;;;;;;4969767;28;20445;-57
2021/08/09 07:18:58;;;;;;;2.27;2.07;;;13.70;99.90;;;;;;4968778;28;21362;-58
2021/08/09 07:21:24;;;;;;;2.10;1.90;;;13.80;99.90;;;;;;4975746;28;20682;-58
2021/08/09 07:23:50;;;;;;;5.33;2.30;;;13.90;99.90;;;;;;4970088;28;20178;-60
2021/08/09 07:26:16;;;;;;;2.60;1.90;;;14.00;99.90;;;;;;4967623;28;20431;-60
2021/08/09 07:28:41;;;;;;;6.73;2.70;;;14.20;99.90;;;;;;4967977;28;20202;-57
2021/08/09 07:31:07;;;;;;;3.00;2.50;;;14.30;99.90;;;;;;4965059;28;20178;-57
2021/08/09 07:33:33;;;;;;;1.77;1.63;;;14.40;99.90;;;;;;4970646;28;20180;-57
2021/08/09 07:36:00;;;;;;;4.37;1.87;;;14.40;99.90;;;;;;4970827;28;20453;-58
2021/08/09 07:38:27;;;;;;;3.67;2.63;;;14.50;99.90;;;;;;4967333;28;20166;-57
2021/08/09 07:40:52;;;;;;;5.93;2.33;;;14.70;99.90;;;;;;4966132;28;20512;-58
2021/08/09 07:43:18;;;;;;;2.37;2.23;;;14.80;99.90;;;;;;4972467;28;20844;-56
2021/08/09 07:45:44;;;;;;;2.20;1.87;;;15.00;99.90;;;;;;4969976;28;20689;-56
2021/08/09 07:48:09;;;;;;;3.93;2.07;;;15.10;99.90;;;;;;4982939;28;20201;-58
2021/08/09 07:50:35;;;;;;;4.13;2.60;;;15.30;99.90;;;;;;4981992;28;20185;-60
2021/08/09 07:53:01;;;;;;;2.30;2.10;;;15.50;99.90;;;;;;4977147;28;20189;-58
2021/08/09 07:55:26;;;;;;;4.10;2.47;;;15.60;99.90;;;;;;4975516;28;20251;-57
2021/08/09 07:57:52;;;;;;;2.67;2.10;;;15.80;99.90;;;;;;4967529;28;20174;-57
2021/08/09 08:00:18;;;;;;;9.23;2.33;;;15.90;99.60;;;;;;4962640;28;20690;-56
2021/08/09 08:02:44;;;;;;;4.03;2.20;;;16.00;99.60;;;;;;4963668;28;20428;-58
2021/08/09 08:05:10;;;;;;;8.00;2.67;;;16.20;98.70;;;;;;4963490;28;20226;-55
2021/08/09 08:07:36;;;;;;;3.70;2.77;;;16.20;97.50;;;;;;4970333;28;20178;-54
2021/08/09 08:10:02;;;;;;;5.83;3.97;;;16.40;97.70;;;;;;4969716;28;20460;-58
2021/08/09 08:12:29;;;;;;;15.37;5.33;;;16.50;98.10;;;;;;4969802;28;20196;-56
2021/08/09 08:14:55;;;;;;;13.07;4.50;;;16.60;97.20;;;;;;4969697;28;20424;-56
2021/08/09 08:17:22;;;;;;;3.40;2.00;;;16.70;96.80;;;;;;4968661;28;20418;-55
2021/08/09 08:19:48;;;;;;;8.07;2.60;;;16.80;92.30;;;;;;4983004;28;20205;-57
2021/08/09 08:22:14;;;;;;;5.43;2.30;;;16.80;91.40;;;;;;4971489;28;20417;-56
2021/08/09 08:24:39;;;;;;;8.27;3.60;;;16.90;92.40;;;;;;4972541;28;20177;-57
2021/08/09 08:27:05;;;;;;;6.03;2.57;;;17.00;92.70;;;;;;4967087;28;20174;-56
2021/08/09 08:29:31;;;;;;;5.60;2.97;;;17.10;91.70;;;;;;4960451;28;20541;-56
2021/08/09 08:31:56;;;;;;;9.30;2.77;;;17.20;89.70;;;;;;4972101;28;20220;-55
2021/08/09 08:34:22;;;;;;;5.90;2.43;;;17.30;87.80;;;;;;4971192;28;20174;-56
2021/08/09 08:36:48;;;;;;;12.10;4.87;;;17.40;90.10;;;;;;4962223;28;20204;-56
2021/08/09 08:39:13;;;;;;;8.57;2.70;;;17.50;89.10;;;;;;4976602;28;20206;-57
2021/08/09 08:41:43;;;;;;;5.80;2.03;;;17.70;90.30;;;;;;4962312;28;20185;-56
2021/08/09 08:44:09;;;;;;;4.87;2.03;;;17.80;88.50;;;;;;4970234;28;20257;-56
2021/08/09 08:46:41;;;;;;;7.80;2.30;;;17.80;82.90;;;;;;4959900;28;20512;-56
2021/08/09 08:49:13;;;;;;;3.50;1.90;;;17.80;82.80;;;;;;4964293;28;20465;-58
2021/08/09 08:51:44;;;;;;;4.47;2.30;;;17.90;82.40;;;;;;4962015;28;21817;-58
2021/08/09 08:54:12;;;;;;;2.83;1.80;;;18.00;77.70;;;;;;4967399;28;20444;-57
2021/08/09 08:56:40;;;;;;;3.60;1.70;;;18.10;78.60;;;;;;4965893;28;20453;-56
2021/08/09 08:59:07;;;;;;;2.60;1.73;;;18.20;74.00;;;;;;4970431;28;20459;-57
2021/08/09 09:01:38;;;;;;;3.17;1.90;;;18.40;71.90;;;;;;4969277;28;20426;-55
2021/08/09 09:04:24;;;;;;;4.20;1.90;;;18.40;69.40;;;;;;4969991;28;20572;-56
2021/08/09 09:07:08;;;;;;;3.77;1.87;;;18.50;69.00;;;;;;4955116;28;20448;-58
2021/08/09 09:09:39;;;;;;;6.47;1.60;;;18.50;69.40;;;;;;4967229;28;20512;-57
2021/08/09 09:12:18;;;;;;;3.50;1.80;;;18.60;68.40;;;;;;4968898;28;20516;-55
2021/08/09 09:15:01;;;;;;;2.97;1.80;;;18.60;69.50;;;;;;4966398;28;20522;-57
2021/08/09 09:17:34;;;;;;;4.37;1.87;;;18.70;72.60;;;;;;4964088;28;20437;-57
2021/08/09 09:20:27;;;;;;;4.80;1.60;;;18.90;72.00;;;;;;4970076;28;20491;-58
2021/08/09 09:23:11;;;;;;;9.23;2.13;;;19.10;66.70;;;;;;4963580;28;20413;-57
2021/08/09 09:25:37;;;;;;;2.37;1.73;;;19.20;65.20;;;;;;4970324;28;20938;-58
2021/08/09 09:28:24;;;;;;;3.10;1.63;;;19.40;64.90;;;;;;4964849;28;20433;-57
2021/08/09 09:30:50;;;;;;;1.83;1.60;;;19.60;64.40;;;;;;4965792;28;20186;-58
2021/08/09 09:33:16;;;;;;;3.00;1.70;;;19.70;62.20;;;;;;4969426;28;20424;-57
2021/08/09 09:35:41;;;;;;;2.10;1.50;;;19.70;57.50;;;;;;4966061;28;20453;-56
2021/08/09 09:38:07;;;;;;;5.00;1.60;;;19.70;56.30;;;;;;4965775;28;21023;-56
2021/08/09 09:40:40;;;;;;;1.77;1.40;;;19.70;56.30;;;;;;4969043;28;20260;-58
2021/08/09 09:43:20;;;;;;;2.43;1.50;;;19.80;55.80;;;;;;4966723;28;20225;-58
2021/08/09 09:45:50;;;;;;;2.90;1.60;;;19.90;56.70;;;;;;4965981;28;20429;-57
2021/08/09 09:48:16;;;;;;;2.60;1.50;;;20.00;57.60;;;;;;4969991;28;20421;-57
2021/08/09 09:50:43;;;;;;;2.13;1.40;;;20.10;55.80;;;;;;4988005;28;20412;-56
2021/08/09 09:53:16;;;;;;;3.00;1.73;;;20.20;54.10;;;;;;4968329;28;20580;-56
2021/08/09 09:55:43;;;;;;;2.20;1.57;;;20.20;55.30;;;;;;4969775;28;20459;-58
2021/08/09 09:58:09;;;;;;;3.60;1.50;;;20.20;55.70;;;;;;4968042;28;20432;-56
2021/08/09 10:00:35;;;;;;;2.97;1.53;;;20.40;55.80;;;;;;4963733;28;20415;-57
2021/08/09 10:05:42;;;;;;;2.80;1.43;;;20.60;55.00;;;;;;5610675;23;20238;-58
2021/08/09 10:08:14;;;;;;;2.93;1.70;;;20.80;54.60;;;;;;5002952;28;20451;-58
2021/08/09 10:10:44;;;;;;;2.47;1.80;;;20.90;54.80;;;;;;5007824;28;20435;-57
2021/08/09 10:13:11;;;;;;;4.27;1.33;;;21.10;56.30;;;;;;5001224;28;20472;-57
2021/08/09 10:15:36;;;;;;;2.80;1.40;;;21.20;54.80;;;;;;5013662;28;20461;-57
2021/08/09 10:18:03;;;;;;;2.23;1.20;;;21.20;53.00;;;;;;5028268;28;20471;-58
2021/08/09 10:20:29;;;;;;;4.33;1.60;;;21.20;50.10;;;;;;5022062;28;20663;-57
2021/08/09 10:23:00;;;;;;;4.33;1.60;;;21.20;50.10;;;;;;5014849;28;20435;-58
2021/08/09 10:25:45;;;;;;;1.67;1.40;;;21.20;51.20;;;;;;5027111;28;20969;-57
2021/08/09 10:28:11;;;;;;;2.20;1.37;;;21.30;51.40;;;;;;5033413;28;20421;-57
2021/08/09 10:30:37;;;;;;;3.03;1.67;;;21.40;52.40;;;;;;5028120;28;20431;-57
2021/08/09 10:33:11;;;;;;;3.20;1.50;;;21.60;53.10;;;;;;5020405;28;20828;-57
2021/08/09 10:35:39;;;;;;;3.40;1.40;;;21.60;50.80;;;;;;5030858;28;20196;-57
2021/08/09 10:38:14;;;;;;;6.10;1.30;;;21.70;51.00;;;;;;5029815;28;20529;-56
2021/08/09 10:40:40;;;;;;;5.60;2.00;;;21.90;50.70;;;;;;5024202;28;20884;-57
2021/08/09 10:43:06;;;;;;;1.40;1.30;;;22.10;48.40;;;;;;5031204;28;20494;-59
2021/08/09 10:45:45;;;;;;;1.67;1.53;;;22.10;46.10;;;;;;5031338;28;20592;-57
2021/08/09 10:48:12;;;;;;;3.30;1.70;;;22.00;47.90;;;;;;5031309;28;20175;-57
2021/08/09 10:50:41;;;;;;;3.13;1.70;;;22.00;50.00;;;;;;5028449;28;20421;-57
2021/08/09 10:53:25;;;;;;;1.70;1.37;;;22.00;49.40;;;;;;5029674;28;21071;-56
2021/08/09 10:56:00;;;;;;;5.27;2.30;;;21.90;49.70;;;;;;5030432;28;20501;-57
2021/08/09 10:58:41;;;;;;;4.23;2.23;;;21.80;50.30;;;;;;5031364;28;20459;-56
2021/08/09 11:01:14;;;;;;;2.23;1.40;;;21.90;50.10;;;;;;5023588;28;20418;-55
2021/08/09 11:04:02;;;;;;;3.83;1.60;;;22.00;51.60;;;;;;5022156;28;20457;-59
2021/08/09 11:06:37;;;;;;;2.03;1.50;;;22.00;48.70;;;;;;5021942;28;20543;-56
2021/08/09 11:09:31;;;;;;;3.47;1.47;;;21.80;49.40;;;;;;5026404;28;20440;-57
2021/08/09 11:12:21;;;;;;;2.40;1.90;;;21.80;51.70;;;;;;5030481;28;20418;-57
2021/08/09 11:15:10;;;;;;;4.17;1.73;;;22.00;52.70;;;;;;5025658;28;20457;-58
2021/08/09 11:17:39;;;;;;;5.30;2.20;;;22.40;52.70;;;;;;5024801;28;20498;-58
2021/08/09 11:20:13;;;;;;;3.53;1.60;;;22.70;53.00;;;;;;5030901;28;20946;-60
2021/08/09 11:22:41;;;;;;;1.87;1.60;;;22.90;51.10;;;;;;5024214;28;20425;-58
2021/08/09 11:25:23;;;;;;;2.67;1.70;;;23.10;49.30;;;;;;5029837;28;20434;-57
2021/08/09 11:28:16;;;;;;;3.53;1.63;;;23.20;50.00;;;;;;5030059;28;20418;-58
2021/08/09 11:30:53;;;;;;;3.70;1.90;;;23.00;47.60;;;;;;5021037;28;20981;-57
2021/08/09 11:33:30;;;;;;;2.30;1.60;;;22.90;48.60;;;;;;5022076;28;20438;-57
2021/08/09 11:36:00;;;;;;;3.20;1.50;;;22.80;48.70;;;;;;5027318;28;20999;-57
2021/08/09 11:38:27;;;;;;;4.33;2.00;;;22.80;49.50;;;;;;5037634;28;20418;-57
2021/08/09 11:40:55;;;;;;;3.40;1.60;;;22.80;50.30;;;;;;5029823;28;20430;-59
2021/08/09 11:43:27;;;;;;;3.00;1.80;;;22.80;50.00;;;;;;5030571;28;20417;-58
2021/08/09 11:45:55;;;;;;;3.23;1.90;;;22.70;49.90;;;;;;5029113;28;21029;-57
2021/08/09 11:48:34;;;;;;;3.33;1.73;;;22.80;51.10;;;;;;5026990;28;20579;-57
2021/08/09 11:51:13;;;;;;;2.57;1.77;;;23.10;51.20;;;;;;5029434;28;20456;-58
2021/08/09 11:53:41;;;;;;;3.33;1.87;;;23.50;50.10;;;;;;5026761;28;20456;-55
2021/08/09 11:56:13;;;;;;;2.03;1.47;;;23.60;47.30;;;;;;5024261;28;20498;-58
2021/08/09 11:58:39;;;;;;;5.33;1.90;;;23.30;48.00;;;;;;5029115;28;20867;-57
2021/08/09 12:01:06;;;;;;;5.00;1.90;;;23.00;49.20;;;;;;5028278;28;20422;-57
2021/08/09 12:03:32;;;;;;;4.10;2.30;;;22.80;50.70;;;;;;5026014;28;20934;-57
2021/08/09 12:06:24;;;;;;;1.70;1.43;;;22.90;51.00;;;;;;5023630;28;20457;-57
2021/08/09 12:08:51;;;;;;;3.27;1.70;;;23.00;49.30;;;;;;5028440;28;20477;-57
2021/08/09 12:11:17;;;;;;;5.60;1.50;;;23.00;47.70;;;;;;5029855;28;20518;-57
2021/08/09 12:13:43;;;;;;;3.67;1.57;;;23.10;47.90;;;;;;5028179;28;20521;-57
2021/08/09 12:16:14;;;;;;;3.73;1.60;;;23.40;47.10;;;;;;5028363;28;20548;-57
2021/08/09 12:18:52;;;;;;;2.70;1.80;;;23.50;47.50;;;;;;5022813;28;20163;-57
2021/08/09 12:21:18;;;;;;;2.43;1.50;;;23.70;48.20;;;;;;5026333;28;20431;-57
2021/08/09 12:23:56;;;;;;;1.80;1.40;;;24.00;48.20;;;;;;5025416;28;20429;-56
2021/08/09 12:26:33;;;;;;;2.23;1.70;;;24.30;48.50;;;;;;5025940;28;20219;-56
2021/08/09 12:29:02;;;;;;;2.77;1.50;;;24.30;47.40;;;;;;5025639;28;20419;-61
2021/08/09 12:31:32;;;;;;;3.60;1.80;;;24.20;45.90;;;;;;5031624;28;20912;-58
2021/08/09 12:34:05;;;;;;;4.20;2.47;;;24.00;46.20;;;;;;5028233;28;20437;-57
2021/08/09 12:36:32;;;;;;;7.40;1.93;;;23.80;46.20;;;;;;5026274;28;20470;-57
2021/08/09 12:38:58;;;;;;;2.77;1.67;;;23.70;47.40;;;;;;5029165;28;20450;-57
2021/08/09 12:41:29;;;;;;;2.50;1.60;;;23.50;47.10;;;;;;5029058;28;20821;-58
2021/08/09 12:43:56;;;;;;;2.33;1.90;;;23.30;48.20;;;;;;5020390;28;20184;-56
2021/08/09 12:46:22;;;;;;;2.13;1.70;;;23.10;48.80;;;;;;5028962;28;20434;-57
2021/08/09 12:48:49;;;;;;;2.10;1.30;;;23.10;49.00;;;;;;5026731;28;20418;-56
2021/08/09 12:51:14;;;;;;;2.60;1.60;;;23.10;49.30;;;;;;5029084;28;20180;-57
2021/08/09 12:53:40;;;;;;;11.00;2.03;;;23.30;50.00;;;;;;5030971;28;20427;-56
2021/08/09 12:56:06;;;;;;;2.70;1.70;;;23.50;49.40;;;;;;5029471;28;20192;-59
2021/08/09 12:58:32;;;;;;;5.17;1.83;;;23.50;49.50;;;;;;5028748;28;20168;-56
2021/08/09 13:00:57;;;;;;;2.90;1.60;;;23.40;47.60;;;;;;5023874;28;20187;-56
2021/08/09 13:03:23;;;;;;;7.10;1.70;;;23.30;47.80;;;;;;5030229;28;20549;-56
2021/08/09 13:05:49;;;;;;;6.10;1.87;;;23.10;48.30;;;;;;5027927;28;20195;-57
2021/08/09 13:08:14;;;;;;;2.90;1.43;;;22.90;47.50;;;;;;5027382;28;20219;-57
2021/08/09 13:10:40;;;;;;;6.33;1.70;;;22.80;48.00;;;;;;5029927;28;20687;-56
2021/08/09 13:13:06;;;;;;;1.73;1.60;;;22.60;47.40;;;;;;5029936;28;20179;-57